Time;durP1;ratioP1;P1;durP2;ratioP2;P2;SDS_P1;SDS_P2;PMS_P1;PMS_P2;Temp;Humidity;BMP_temperature;BMP_pressure;BME280_temperature;BME280_humidity;BME280_pressure;Samples;Min_cycle;Max_cycle;Signal;HPM_P1;HPM_P2
2022/01/16 00:05:07;;;;;;;77.70;36.17;;;;;;;-2.05;100.00;102437.94;5246726;28;20036;-60
2022/01/16 00:07:38;;;;;;;55.35;37.03;;;;;;;-1.95;100.00;102471.53;5228682;28;20033;-60
2022/01/16 00:10:09;;;;;;;33.83;31.00;;;;;;;-2.01;100.00;102451.72;5228763;28;20426;-61
2022/01/16 00:12:40;;;;;;;36.15;32.78;;;;;;;-1.99;100.00;102457.72;5228847;28;20430;-61
2022/01/16 00:15:11;;;;;;;54.58;34.20;;;;;;;-2.00;100.00;102457.84;5228745;28;20020;-61
2022/01/16 00:17:53;;;;;;;38.10;34.88;;;;;;;-2.12;100.00;102450.03;5228756;28;20107;-61
2022/01/16 00:20:27;;;;;;;40.92;33.60;;;;;;;-2.03;100.00;102456.34;5228748;28;20202;-62
2022/01/16 00:22:58;;;;;;;34.15;31.02;;;;;;;-2.31;100.00;102423.50;5228745;28;20024;-64
2022/01/16 00:25:29;;;;;;;34.85;31.88;;;;;;;-2.10;100.00;102453.41;5228631;28;20032;-62
2022/01/16 00:27:59;;;;;;;33.85;30.48;;;;;;;-2.05;100.00;102450.34;5228724;28;20024;-61
2022/01/16 00:30:30;;;;;;;43.95;31.83;;;;;;;-2.12;100.00;102428.88;5246342;28;20107;-63
2022/01/16 00:33:01;;;;;;;37.58;31.85;;;;;;;-2.07;100.00;102441.72;5228606;28;20021;-63
2022/01/16 00:35:31;;;;;;;37.03;33.70;;;;;;;-2.09;100.00;102449.78;5228228;28;20094;-63
2022/01/16 00:38:02;;;;;;;37.13;33.22;;;;;;;-2.09;100.00;102457.72;5227864;28;20131;-63
2022/01/16 00:40:33;;;;;;;34.65;31.40;;;;;;;-2.12;100.00;102457.97;5228035;28;20515;-64
2022/01/16 00:43:04;;;;;;;35.15;31.60;;;;;;;-2.13;100.00;102453.66;5245094;28;20056;-61
2022/01/16 00:45:35;;;;;;;36.90;33.42;;;;;;;-2.15;100.00;102457.41;5244693;28;20029;-63
2022/01/16 00:48:06;;;;;;;39.42;35.20;;;;;;;-2.32;100.00;102424.50;5228313;28;20039;-61
2022/01/16 00:50:37;;;;;;;37.67;33.90;;;;;;;-2.19;100.00;102435.66;5228188;28;20052;-64
2022/01/16 00:53:08;;;;;;;35.83;32.70;;;;;;;-2.22;100.00;102465.03;5228131;28;20128;-61
2022/01/16 00:55:38;;;;;;;37.08;33.40;;;;;;;-2.19;100.00;102440.13;5227819;28;20025;-61
2022/01/16 00:58:09;;;;;;;37.97;34.50;;;;;;;-2.21;100.00;102421.72;5228625;28;20530;-60
2022/01/16 01:00:40;;;;;;;39.47;35.78;;;;;;;-2.26;100.00;102409.88;5228189;28;20588;-61
2022/01/16 01:03:11;;;;;;;41.05;35.10;;;;;;;-2.39;100.00;102402.19;5228293;28;20025;-60
2022/01/16 01:05:42;;;;;;;37.70;34.05;;;;;;;-2.31;100.00;102431.44;5227827;28;20049;-61
2022/01/16 01:08:13;;;;;;;39.92;36.40;;;;;;;-2.31;100.00;102426.13;5227898;28;20469;-61
2022/01/16 01:10:47;;;;;;;38.63;35.30;;;;;;;-2.30;100.00;102443.69;5228120;28;20468;-61
2022/01/16 01:15:58;;;;;;;42.33;38.13;;;;;;;-2.58;100.00;102396.78;5246493;28;20033;-61
2022/01/16 01:18:33;;;;;;;43.63;39.15;;;;;;;-2.29;100.00;102431.28;5228127;28;20031;-64
2022/01/16 01:21:13;;;;;;;40.67;37.00;;;;;;;-2.30;100.00;102434.91;5227691;28;20029;-61
2022/01/16 01:23:43;;;;;;;35.65;32.03;;;;;;;-2.31;100.00;102414.75;5227720;28;20059;-64
2022/01/16 01:26:14;;;;;;;45.30;41.17;;;;;;;-2.41;100.00;102427.94;5228038;28;20017;-61
2022/01/16 01:28:44;;;;;;;42.95;39.08;;;;;;;-2.62;100.00;102385.66;5227830;28;20029;-61
2022/01/16 01:31:14;;;;;;;42.38;38.15;;;;;;;-2.31;100.00;102442.00;5227651;28;20025;-61
2022/01/16 01:33:45;;;;;;;42.50;38.22;;;;;;;-2.57;100.00;102394.00;5227656;28;20113;-61
2022/01/16 01:36:16;;;;;;;44.40;40.03;;;;;;;-2.22;100.00;102385.66;5227975;28;20031;-63
2022/01/16 01:38:46;;;;;;;47.22;42.65;;;;;;;-2.25;100.00;102340.94;5227898;28;20029;-62
2022/01/16 01:41:19;;;;;;;47.63;43.10;;;;;;;-1.94;100.00;102373.44;5227672;28;20051;-60
2022/01/16 01:52:17;;;;;;;52.88;47.45;;;;;;;-1.43;100.00;102426.19;5250083;28;20123;-66
2022/01/16 01:54:47;;;;;;;53.95;45.08;;;;;;;-1.38;100.00;102420.47;5231007;28;20088;-63
2022/01/16 01:57:18;;;;;;;48.13;43.55;;;;;;;-1.28;100.00;102433.72;5248154;28;20025;-63
2022/01/16 01:59:48;;;;;;;54.75;48.30;;;;;;;-1.32;100.00;102408.47;5231503;28;20024;-60
2022/01/16 02:02:19;;;;;;;53.45;47.92;;;;;;;-1.17;100.00;102431.78;5231175;28;20029;-61
2022/01/16 02:04:49;;;;;;;51.35;45.83;;;;;;;-1.19;100.00;102417.81;5230928;28;20474;-62
2022/01/16 02:07:19;;;;;;;54.20;48.83;;;;;;;-1.02;100.00;102448.06;5231137;28;20037;-61
2022/01/16 02:09:50;;;;;;;53.92;49.13;;;;;;;-0.97;100.00;102429.09;5231242;28;20028;-62
2022/01/16 02:12:22;;;;;;;60.55;51.72;;;;;;;-0.92;100.00;102438.31;5247770;28;20020;-59
2022/01/16 02:15:02;;;;;;;60.50;54.20;;;;;;;-0.86;100.00;102443.00;5247141;28;20027;-61
2022/01/16 02:32:29;;;;;;;61.17;55.42;;;;;;;-0.65;100.00;102429.59;5248762;28;20054;-63
2022/01/16 02:34:53;;;;;;;65.30;53.90;;;;;;;-0.61;100.00;102435.44;5247998;28;20113;-64
2022/01/16 02:37:24;;;;;;;60.70;55.00;;;;;;;-0.52;100.00;102453.97;5230494;28;20462;-60
2022/01/16 02:40:02;;;;;;;58.08;52.05;;;;;;;-0.48;100.00;102449.19;5230715;28;20024;-60
2022/01/16 02:42:37;;;;;;;63.20;56.45;;;;;;;-0.45;100.00;102454.22;5230688;28;20024;-60
2022/01/16 02:45:16;;;;;;;63.33;57.13;;;;;;;-0.58;100.00;102411.28;5229989;28;20481;-60
2022/01/16 02:47:46;;;;;;;63.55;55.53;;;;;;;-0.49;100.00;102411.22;5230667;28;20119;-60
2022/01/16 02:50:16;;;;;;;66.70;59.78;;;;;;;-0.43;100.00;102418.59;5230057;28;20543;-60
2022/01/16 02:52:47;;;;;;;61.13;54.72;;;;;;;-0.29;100.00;102419.97;5230495;28;20107;-60
2022/01/16 02:55:21;;;;;;;64.43;57.50;;;;;;;-0.26;100.00;102421.44;5230022;28;20499;-62
2022/01/16 02:57:54;;;;;;;61.22;55.42;;;;;;;-0.29;100.00;102412.00;5230241;28;20496;-60
2022/01/16 03:00:25;;;;;;;63.25;56.45;;;;;;;-0.21;100.00;102412.06;5229761;28;20041;-60
2022/01/16 03:02:56;;;;;;;64.50;58.47;;;;;;;-0.19;100.00;102404.78;5229004;28;20024;-59
2022/01/16 03:05:26;;;;;;;64.40;57.72;;;;;;;-0.18;100.00;102401.16;5229739;28;20033;-58
2022/01/16 03:07:57;;;;;;;67.78;60.58;;;;;;;-0.16;100.00;102401.84;5229816;28;20060;-60
2022/01/16 03:13:04;;;;;;;64.97;58.97;;;;;;;-0.10;100.00;102389.81;5247641;28;20102;-59
2022/01/16 03:15:38;;;;;;;64.43;57.63;;;;;;;-0.12;100.00;102373.19;5229538;28;20028;-60
2022/01/16 03:23:28;;;;;;;65.22;59.15;;;;;;;-0.06;100.00;102377.91;5247536;28;20085;-59
2022/01/16 03:25:59;;;;;;;70.05;58.35;;;;;;;0.00;100.00;102388.75;5229764;28;20469;-57
2022/01/16 03:28:30;;;;;;;65.53;58.38;;;;;;;0.05;100.00;102390.13;5229668;28;20032;-61
2022/01/16 03:31:00;;;;;;;67.50;60.10;;;;;;;-0.06;100.00;102367.28;5229734;28;20124;-59
2022/01/16 03:33:31;;;;;;;63.22;56.55;;;;;;;0.10;100.00;102388.69;5229288;28;20486;-58
2022/01/16 03:36:01;;;;;;;63.58;57.33;;;;;;;-0.03;100.00;102359.03;5229409;28;20157;-59
2022/01/16 03:38:32;;;;;;;64.72;55.58;;;;;;;0.14;100.00;102378.59;5229725;28;20507;-57
2022/01/16 03:41:02;;;;;;;65.85;59.45;;;;;;;0.15;100.00;102377.63;5229296;28;20021;-59
2022/01/16 03:43:33;;;;;;;67.32;60.50;;;;;;;0.16;100.00;102377.47;5229029;28;20032;-60
2022/01/16 03:46:03;;;;;;;66.55;57.50;;;;;;;0.07;100.00;102361.59;5229186;28;20120;-59
2022/01/16 03:48:34;;;;;;;63.05;57.10;;;;;;;0.18;100.00;102370.19;5229178;28;20034;-60
2022/01/16 03:51:04;;;;;;;66.47;56.35;;;;;;;0.21;100.00;102366.41;5246857;28;20481;-60
2022/01/16 03:53:35;;;;;;;62.80;56.58;;;;;;;0.23;100.00;102377.72;5246692;28;20020;-60
2022/01/16 03:56:05;;;;;;;63.22;56.85;;;;;;;0.26;100.00;102382.72;5228917;28;20446;-63
2022/01/16 03:58:36;;;;;;;67.15;60.75;;;;;;;0.24;100.00;102382.03;5228838;28;20047;-62
2022/01/16 04:01:06;;;;;;;67.55;60.17;;;;;;;0.27;100.00;102385.25;5228636;28;20039;-62
2022/01/16 04:03:37;;;;;;;67.03;59.95;;;;;;;0.28;100.00;102384.25;5228450;28;20102;-60
2022/01/16 04:06:07;;;;;;;62.42;55.28;;;;;;;0.24;100.00;102376.72;5228858;28;20678;-60
2022/01/16 04:08:38;;;;;;;68.82;61.53;;;;;;;0.25;100.00;102389.03;5228735;28;20032;-60
2022/01/16 04:11:08;;;;;;;60.63;55.17;;;;;;;0.23;100.00;102385.69;5228541;28;20051;-62
2022/01/16 04:13:48;;;;;;;63.50;56.35;;;;;;;0.20;100.00;102380.66;5228205;28;20099;-60
2022/01/16 04:16:20;;;;;;;68.10;61.70;;;;;;;0.21;100.00;102391.16;5245442;28;20097;-60
2022/01/16 04:18:51;;;;;;;66.40;59.72;;;;;;;0.21;100.00;102396.47;5228663;28;20028;-63
2022/01/16 04:21:24;;;;;;;67.53;60.72;;;;;;;0.23;100.00;102393.66;5228526;28;20054;-59
2022/01/16 04:23:55;;;;;;;64.25;58.03;;;;;;;-0.19;100.00;102322.50;5228295;28;20072;-60
2022/01/16 04:26:26;;;;;;;59.03;52.65;;;;;;;0.25;100.00;102397.84;5228420;28;20104;-60
2022/01/16 04:28:57;;;;;;;67.20;60.13;;;;;;;0.27;100.00;102400.34;5228534;28;20200;-60
2022/01/16 04:31:27;;;;;;;64.53;58.17;;;;;;;0.28;100.00;102391.38;5228239;28;20392;-63
2022/01/16 04:33:58;;;;;;;63.05;56.90;;;;;;;0.32;100.00;102395.38;5228269;28;20066;-61
2022/01/16 04:36:28;;;;;;;75.93;68.15;;;;;;;0.28;100.00;102386.06;5228385;28;20065;-59
2022/01/16 04:38:59;;;;;;;71.10;63.75;;;;;;;0.36;100.00;102396.75;5228265;28;20111;-59
2022/01/16 04:44:18;;;;;;;68.45;58.38;;;;;;;0.41;100.00;102396.31;5246020;28;20558;-62
2022/01/16 04:46:49;;;;;;;71.70;64.03;;;;;;;0.42;100.00;102395.31;5228192;28;20025;-60
2022/01/16 04:49:20;;;;;;;76.82;67.05;;;;;;;0.44;100.00;102396.84;5228488;28;20024;-59
2022/01/16 04:51:50;;;;;;;67.22;60.38;;;;;;;0.44;100.00;102391.53;5227951;28;20025;-61
2022/01/16 04:54:21;;;;;;;69.40;62.00;;;;;;;0.43;100.00;102397.81;5227928;28;20075;-62
2022/01/16 04:56:52;;;;;;;69.03;61.13;;;;;;;0.46;100.00;102394.88;5228380;28;20016;-60
2022/01/16 04:59:22;;;;;;;68.18;61.00;;;;;;;0.49;100.00;102391.91;5228105;28;20027;-59
2022/01/16 05:01:53;;;;;;;67.18;60.45;;;;;;;0.52;100.00;102398.75;5227980;28;20032;-59
2022/01/16 05:04:23;;;;;;;80.57;66.20;;;;;;;0.56;100.00;102400.13;5227815;28;20032;-61
2022/01/16 05:06:55;;;;;;;71.95;64.07;;;;;;;0.58;100.00;102388.31;5228378;28;20674;-59
2022/01/16 05:09:25;;;;;;;72.03;64.53;;;;;;;0.56;100.00;102382.34;5228161;28;20024;-62
2022/01/16 05:11:56;;;;;;;68.05;60.83;;;;;;;0.64;100.00;102389.53;5228200;28;20130;-60
2022/01/16 05:17:16;;;;;;;71.10;64.22;;;;;;;0.61;100.00;102379.19;5246211;28;20020;-62
2022/01/16 05:19:46;;;;;;;69.05;61.72;;;;;;;0.79;100.00;102401.31;5227782;28;20021;-60
2022/01/16 05:22:17;;;;;;;75.55;66.55;;;;;;;0.84;100.00;102396.38;5227902;28;20017;-60
2022/01/16 05:24:47;;;;;;;82.15;65.40;;;;;;;0.89;100.00;102403.84;5245047;28;20031;-59
2022/01/16 05:27:18;;;;;;;73.50;65.82;;;;;;;0.93;100.00;102402.56;5232116;28;20427;-59
2022/01/16 05:29:48;;;;;;;73.63;65.85;;;;;;;0.95;100.00;102411.22;5232130;28;20056;-59
2022/01/16 05:32:18;;;;;;;76.80;65.25;;;;;;;0.96;100.00;102408.41;5231721;28;20028;-63
2022/01/16 05:34:50;;;;;;;69.15;61.67;;;;;;;0.99;100.00;102410.75;5231508;28;20038;-62
2022/01/16 05:37:20;;;;;;;74.90;63.80;;;;;;;1.02;100.00;102412.28;5231824;28;20123;-60
2022/01/16 05:39:51;;;;;;;72.85;63.85;;;;;;;1.01;100.00;102414.09;5231600;28;20587;-61
2022/01/16 05:42:21;;;;;;;70.53;62.78;;;;;;;1.06;100.00;102413.66;5231801;28;20020;-60
2022/01/16 05:44:52;;;;;;;70.28;63.10;;;;;;;1.09;100.00;102417.81;5231152;28;20031;-60
2022/01/16 05:47:22;;;;;;;65.82;58.38;;;;;;;1.07;100.00;102414.47;5231547;28;20027;-61
2022/01/16 05:49:53;;;;;;;72.43;60.47;;;;;;;1.12;100.00;102429.00;5231044;28;20531;-60
2022/01/16 05:52:23;;;;;;;69.55;62.00;;;;;;;1.08;100.00;102427.63;5231433;28;20032;-59
2022/01/16 05:54:54;;;;;;;66.32;59.30;;;;;;;1.13;100.00;102428.00;5231283;28;20400;-59
2022/01/16 05:57:24;;;;;;;71.25;60.70;;;;;;;1.16;100.00;102429.47;5248105;28;20028;-62
2022/01/16 05:59:55;;;;;;;78.55;64.28;;;;;;;1.16;100.00;102429.47;5231490;28;20032;-60
2022/01/16 06:02:27;;;;;;;71.75;61.15;;;;;;;1.15;100.00;102422.53;5230614;28;20027;-59
2022/01/16 06:04:57;;;;;;;71.38;60.75;;;;;;;1.16;100.00;102421.50;5230880;28;20108;-60
2022/01/16 06:07:27;;;;;;;75.53;67.55;;;;;;;1.13;100.00;102433.31;5231100;28;20115;-59
2022/01/16 06:09:58;;;;;;;74.53;59.67;;;;;;;1.17;100.00;102425.84;5249115;28;20458;-59
2022/01/16 06:12:29;;;;;;;64.63;55.38;;;;;;;1.17;100.00;102431.16;5231156;28;20029;-57
2022/01/16 06:15:00;;;;;;;66.88;60.13;;;;;;;1.17;100.00;102432.00;5230454;28;20378;-62
2022/01/16 06:17:31;;;;;;;72.43;57.95;;;;;;;1.18;100.00;102433.66;5231100;28;20476;-60
2022/01/16 06:20:04;;;;;;;69.90;58.03;;;;;;;1.20;100.00;102430.84;5230960;28;20029;-61
2022/01/16 06:22:34;;;;;;;69.30;59.25;;;;;;;1.18;100.00;102433.66;5230741;28;20031;-60
2022/01/16 06:25:05;;;;;;;67.65;60.20;;;;;;;1.18;100.00;102438.16;5230441;28;20025;-61
2022/01/16 06:27:36;;;;;;;66.90;57.65;;;;;;;1.20;100.00;102441.50;5230500;28;20021;-60
2022/01/16 06:30:08;;;;;;;69.38;56.45;;;;;;;1.20;100.00;102442.31;5230523;28;20047;-59
2022/01/16 06:32:39;;;;;;;66.80;57.80;;;;;;;0.97;100.00;102409.25;5230742;28;20021;-59
2022/01/16 06:35:11;;;;;;;69.63;60.00;;;;;;;1.19;100.00;102435.34;5230534;28;20085;-59
2022/01/16 06:37:42;;;;;;;76.80;59.40;;;;;;;1.14;100.00;102434.16;5229436;28;20350;-58
2022/01/16 06:40:13;;;;;;;62.13;55.65;;;;;;;1.22;100.00;102464.28;5230495;28;20032;-61
2022/01/16 06:42:44;;;;;;;60.75;54.45;;;;;;;1.21;100.00;102475.94;5230553;28;20032;-59
2022/01/16 06:45:14;;;;;;;66.63;58.53;;;;;;;1.22;100.00;102471.44;5230208;28;20021;-59
2022/01/16 06:47:45;;;;;;;71.63;58.10;;;;;;;1.22;100.00;102474.94;5230490;28;20048;-62
2022/01/16 06:50:15;;;;;;;59.35;51.00;;;;;;;1.24;100.00;102469.47;5240775;28;20111;-61
2022/01/16 06:52:46;;;;;;;66.57;58.90;;;;;;;1.24;100.00;102480.09;5246464;28;20393;-60
2022/01/16 06:55:16;;;;;;;67.88;56.50;;;;;;;1.04;100.00;102439.56;5247982;28;20373;-59
2022/01/16 06:57:47;;;;;;;58.80;52.40;;;;;;;1.26;100.00;102483.44;5230294;28;20039;-59
2022/01/16 07:00:17;;;;;;;66.78;56.30;;;;;;;1.06;100.00;102455.38;5230141;28;20381;-58
2022/01/16 07:02:48;;;;;;;62.00;55.88;;;;;;;1.28;100.00;102492.94;5229922;28;20024;-62
2022/01/16 07:05:18;;;;;;;70.18;56.53;;;;;;;1.29;100.00;102493.78;5229686;28;20507;-59
2022/01/16 07:07:49;;;;;;;66.20;57.97;;;;;;;1.30;100.00;102495.47;5230097;28;20119;-58
2022/01/16 07:10:20;;;;;;;68.88;54.33;;;;;;;1.29;100.00;102489.31;5230285;28;20461;-60
2022/01/16 07:12:50;;;;;;;70.85;58.38;;;;;;;1.29;100.00;102499.13;5237357;28;20036;-61
2022/01/16 07:15:21;;;;;;;57.72;51.72;;;;;;;1.29;100.00;102510.59;5252007;28;20546;-59
2022/01/16 07:17:51;;;;;;;61.83;55.28;;;;;;;1.20;100.00;102497.38;5229835;28;20020;-60
2022/01/16 07:20:22;;;;;;;65.22;55.75;;;;;;;1.29;100.00;102521.25;5229786;28;20097;-57
2022/01/16 07:22:52;;;;;;;60.70;54.67;;;;;;;1.32;100.00;102528.91;5229839;28;20611;-59
2022/01/16 07:25:23;;;;;;;62.83;53.92;;;;;;;1.32;100.00;102531.56;5229054;28;20481;-60
2022/01/16 07:27:53;;;;;;;70.57;59.50;;;;;;;1.33;100.00;102535.91;5229351;28;20027;-62
2022/01/16 07:30:24;;;;;;;72.47;55.47;;;;;;;1.29;100.00;102523.91;5229653;28;20039;-59
2022/01/16 07:32:54;;;;;;;70.15;54.63;;;;;;;1.25;100.00;102522.53;5229497;28;20024;-59
2022/01/16 07:35:25;;;;;;;66.78;53.35;;;;;;;1.26;100.00;102520.72;5228916;28;20020;-59
2022/01/16 07:37:55;;;;;;;64.45;56.55;;;;;;;1.40;100.00;102527.31;5229421;28;20498;-59
2022/01/16 07:40:27;;;;;;;58.65;50.90;;;;;;;1.40;100.00;102533.47;5229717;28;20115;-62
2022/01/16 07:42:59;;;;;;;66.90;56.85;;;;;;;1.42;100.00;102530.66;5229892;28;20317;-59
2022/01/16 07:45:29;;;;;;;69.22;52.33;;;;;;;1.43;100.00;102532.34;5229279;28;20031;-58
2022/01/16 07:48:00;;;;;;;64.10;54.03;;;;;;;1.49;100.00;102551.16;5228907;28;20472;-59
2022/01/16 07:50:30;;;;;;;60.78;53.13;;;;;;;1.50;100.00;102546.66;5229791;28;20044;-59
2022/01/16 07:53:01;;;;;;;59.42;51.42;;;;;;;1.53;100.00;102560.50;5247182;28;20032;-60
2022/01/16 07:55:32;;;;;;;59.05;52.72;;;;;;;1.57;100.00;102561.88;5229245;28;20019;-60
2022/01/16 07:58:02;;;;;;;62.05;51.60;;;;;;;1.52;100.00;102558.00;5229568;28;20119;-58
2022/01/16 08:00:33;;;;;;;74.65;57.42;;;;;;;1.49;100.00;102537.00;5229543;28;20493;-59
2022/01/16 08:03:04;;;;;;;63.75;50.90;;;;;;;1.63;100.00;102560.44;5229323;28;20036;-60
2022/01/16 08:05:34;;;;;;;62.97;53.08;;;;;;;1.66;100.00;102560.13;5228994;28;20029;-59
2022/01/16 08:08:05;;;;;;;75.03;56.28;;;;;;;1.69;100.00;102560.66;5229440;28;20074;-59
2022/01/16 08:10:36;;;;;;;70.55;57.22;;;;;;;1.70;100.00;102564.16;5228607;28;20028;-61
2022/01/16 08:13:06;;;;;;;78.65;55.92;;;;;;;1.77;100.00;102565.16;5228995;28;20035;-59
2022/01/16 08:15:37;;;;;;;65.28;54.15;;;;;;;1.79;100.00;102567.69;5246418;28;20017;-61
2022/01/16 08:18:07;;;;;;;69.35;54.22;;;;;;;1.81;100.00;102547.06;5228514;28;20024;-59
2022/01/16 08:20:38;;;;;;;72.28;54.70;;;;;;;1.81;100.00;102547.88;5228501;28;20044;-59
2022/01/16 08:23:08;;;;;;;68.93;57.25;;;;;;;1.82;100.00;102541.56;5228738;28;20032;-59
2022/01/16 08:25:39;;;;;;;77.25;54.40;;;;;;;1.82;100.00;102528.25;5228386;28;20017;-59
2022/01/16 08:28:10;;;;;;;59.00;52.80;;;;;;;1.69;100.00;102511.88;5228025;28;20016;-61
2022/01/16 08:30:40;;;;;;;72.85;58.28;;;;;;;1.88;100.00;102548.94;5228489;28;20546;-62
2022/01/16 08:33:11;;;;;;;80.75;57.05;;;;;;;1.85;100.00;102533.25;5228166;28;20025;-61
2022/01/16 08:35:41;;;;;;;78.10;58.30;;;;;;;1.89;100.00;102545.28;5228267;28;20028;-60
2022/01/16 08:38:12;;;;;;;69.65;53.70;;;;;;;1.93;100.00;102546.63;5228361;28;20035;-59
2022/01/16 08:40:43;;;;;;;75.22;54.83;;;;;;;1.94;100.00;102553.63;5227722;28;20031;-59
2022/01/16 08:43:13;;;;;;;69.00;55.80;;;;;;;1.95;100.00;102555.31;5228198;28;20028;-63
2022/01/16 08:45:44;;;;;;;70.35;54.33;;;;;;;1.99;100.00;102561.16;5227698;28;20527;-62
2022/01/16 08:48:14;;;;;;;65.15;50.45;;;;;;;2.01;100.00;102562.69;5228182;28;20029;-59
2022/01/16 08:50:45;;;;;;;63.97;55.42;;;;;;;2.04;100.00;102562.34;5227847;28;20086;-59
2022/01/16 08:53:15;;;;;;;66.78;54.92;;;;;;;1.98;100.00;102557.66;5227882;28;20032;-58
2022/01/16 08:55:46;;;;;;;66.47;56.30;;;;;;;2.06;100.00;102577.34;5227703;28;20048;-63
2022/01/16 08:58:16;;;;;;;80.78;56.28;;;;;;;2.13;100.00;102584.53;5227931;28;20024;-59
2022/01/16 09:00:48;;;;;;;71.45;54.90;;;;;;;2.17;100.00;102582.41;5230195;28;20020;-59
2022/01/16 09:03:21;;;;;;;69.15;54.05;;;;;;;2.21;100.00;102592.59;5232110;28;20084;-58
2022/01/16 09:05:51;;;;;;;73.85;56.33;;;;;;;2.24;100.00;102580.78;5231998;28;20025;-58
2022/01/16 09:08:22;;;;;;;73.88;56.70;;;;;;;2.28;100.00;102588.31;5232421;28;20543;-59
2022/01/16 09:10:53;;;;;;;74.40;58.35;;;;;;;2.34;100.00;102600.13;5231893;28;20089;-57
2022/01/16 09:13:24;;;;;;;77.78;58.80;;;;;;;2.35;100.00;102577.81;5231967;28;20085;-57
2022/01/16 09:15:54;;;;;;;72.95;58.60;;;;;;;2.32;100.00;102589.63;5232081;28;20477;-58
2022/01/16 09:18:25;;;;;;;71.05;52.25;;;;;;;2.35;100.00;102593.81;5231926;28;20506;-59
2022/01/16 09:20:56;;;;;;;64.93;51.15;;;;;;;2.43;100.00;102601.03;5232117;28;20031;-59
2022/01/16 09:23:28;;;;;;;69.22;56.25;;;;;;;2.44;100.00;102592.88;5249931;28;20035;-59
2022/01/16 09:25:59;;;;;;;71.45;55.80;;;;;;;2.56;100.00;102602.25;5231821;28;20020;-59
2022/01/16 09:28:29;;;;;;;74.18;54.63;;;;;;;2.53;100.00;102599.06;5232002;28;20032;-59
2022/01/16 09:31:00;;;;;;;68.78;52.85;;;;;;;2.62;100.00;102614.94;5231011;28;20020;-56
2022/01/16 09:33:30;;;;;;;69.15;51.85;;;;;;;2.64;100.00;102615.59;5231352;28;20024;-61
2022/01/16 09:36:02;;;;;;;75.85;52.05;;;;;;;2.63;100.00;102613.94;5231605;28;20031;-59
2022/01/16 09:38:32;;;;;;;59.10;51.30;;;;;;;2.66;100.00;102616.28;5231522;28;20028;-60
2022/01/16 09:41:04;;;;;;;57.40;49.47;;;;;;;2.70;100.00;102619.47;5231235;28;20035;-58
2022/01/16 09:43:35;;;;;;;55.88;48.55;;;;;;;2.72;100.00;102623.66;5231218;28;20459;-59
2022/01/16 09:46:06;;;;;;;64.28;48.80;;;;;;;2.75;100.00;102616.31;5231190;28;20472;-58
2022/01/16 09:48:37;;;;;;;60.65;48.38;;;;;;;2.79;100.00;102633.69;5231614;28;20068;-62
2022/01/16 09:51:07;;;;;;;65.07;49.22;;;;;;;2.79;100.00;102629.19;5231702;28;20029;-61
2022/01/16 09:53:43;;;;;;;62.47;45.08;;;;;;;2.81;100.00;102637.03;5231495;28;20458;-59
2022/01/16 09:56:13;;;;;;;60.83;42.45;;;;;;;2.82;100.00;102642.19;5231409;28;20158;-61
2022/01/16 09:58:44;;;;;;;52.05;42.63;;;;;;;2.83;100.00;102640.38;5231298;28;20086;-60
2022/01/16 10:01:14;;;;;;;61.67;44.42;;;;;;;2.89;100.00;102631.69;5231588;28;20027;-61
2022/01/16 10:03:46;;;;;;;48.92;41.15;;;;;;;2.97;100.00;102637.06;5231366;28;20024;-59
2022/01/16 10:06:22;;;;;;;58.03;44.67;;;;;;;3.00;100.00;102642.06;5231287;28;20052;-58
2022/01/16 10:08:54;;;;;;;60.63;44.50;;;;;;;2.98;100.00;102631.56;5237259;22;20051;-59
2022/01/16 10:11:28;;;;;;;50.22;44.50;;;;;;;3.01;100.00;102636.56;5231188;28;20028;-59
2022/01/16 10:14:07;;;;;;;52.25;43.20;;;;;;;2.96;100.00;102630.06;5231270;28;20442;-58
2022/01/16 10:16:40;;;;;;;56.13;43.17;;;;;;;3.02;100.00;102640.09;5231900;28;20016;-56
2022/01/16 10:19:26;;;;;;;53.22;41.30;;;;;;;3.07;100.00;102648.44;5231761;28;20036;-60
2022/01/16 10:22:09;;;;;;;50.47;40.50;;;;;;;3.08;100.00;102654.63;5231796;28;20031;-55
2022/01/16 10:24:41;;;;;;;58.63;40.63;;;;;;;3.03;100.00;102641.75;5230997;28;20024;-58
2022/01/16 10:27:17;;;;;;;57.97;42.53;;;;;;;3.03;100.00;102647.09;5231131;28;20488;-58
2022/01/16 10:29:56;;;;;;;55.85;43.80;;;;;;;3.03;100.00;102652.44;5230754;28;20024;-60
2022/01/16 10:32:29;;;;;;;50.50;40.25;;;;;;;3.04;100.00;102644.25;5230992;28;20082;-60
2022/01/16 10:35:12;;;;;;;50.28;45.20;;;;;;;3.08;100.00;102655.44;5231187;28;20026;-59
2022/01/16 10:37:46;;;;;;;44.20;39.38;;;;;;;3.07;100.00;102659.13;5231549;28;20033;-57
2022/01/16 10:40:23;;;;;;;48.72;40.75;;;;;;;3.07;100.00;102655.63;5230807;28;20024;-62
2022/01/16 10:42:58;;;;;;;48.13;42.40;;;;;;;3.15;100.00;102655.66;5230777;28;20028;-60
2022/01/16 10:45:30;;;;;;;50.33;41.50;;;;;;;3.18;100.00;102634.78;5230149;28;20102;-61
2022/01/16 10:48:03;;;;;;;47.53;38.88;;;;;;;3.10;100.00;102608.09;5230949;28;20054;-60
2022/01/16 10:50:35;;;;;;;48.08;39.97;;;;;;;3.29;100.00;102634.47;5230474;28;20143;-59
2022/01/16 10:53:13;;;;;;;53.10;43.75;;;;;;;3.34;100.00;102621.47;5230458;28;20036;-60
2022/01/16 10:55:54;;;;;;;45.97;39.42;;;;;;;3.57;100.00;102634.16;5230200;28;20042;-60
2022/01/16 10:58:26;;;;;;;48.85;39.60;;;;;;;3.70;100.00;102637.19;5230485;28;20028;-57
2022/01/16 11:01:05;;;;;;;45.47;36.88;;;;;;;3.78;100.00;102642.50;5230278;28;20038;-58
2022/01/16 11:03:39;;;;;;;42.53;37.92;;;;;;;3.80;100.00;102640.50;5248438;28;20032;-58
2022/01/16 11:06:10;;;;;;;49.92;41.25;;;;;;;3.62;100.00;102631.84;5230697;28;20028;-58
2022/01/16 11:08:40;;;;;;;43.42;38.53;;;;;;;3.74;100.00;102651.88;5229943;28;20039;-58
2022/01/16 11:11:12;;;;;;;43.80;38.15;;;;;;;3.73;100.00;102655.56;5230288;28;20245;-59
2022/01/16 11:13:42;;;;;;;41.05;36.65;;;;;;;3.70;100.00;102653.22;5229913;28;20108;-59
2022/01/16 11:16:13;;;;;;;46.80;39.83;;;;;;;3.64;100.00;102657.38;5230257;28;20532;-59
2022/01/16 11:18:51;;;;;;;39.60;35.40;;;;;;;3.65;100.00;102656.38;5230336;28;20052;-59
2022/01/16 11:21:32;;;;;;;37.75;33.75;;;;;;;3.53;100.00;102651.50;5230929;22;20059;-55
2022/01/16 11:27:16;;;;;;;45.28;37.17;;;;;;;3.65;100.00;102647.53;5162776;28;20038;-61
2022/01/16 11:29:47;;;;;;;38.85;33.38;;;;;;;3.65;100.00;102650.19;5162464;28;20054;-55
2022/01/16 11:32:19;;;;;;;43.42;37.28;;;;;;;3.66;100.00;102650.03;5181838;28;20178;-55
2022/01/16 11:34:49;;;;;;;45.63;35.42;;;;;;;3.66;100.00;102649.19;5208284;28;20187;-57
2022/01/16 11:37:20;;;;;;;37.92;33.80;;;;;;;3.61;100.00;102654.19;5208213;28;20567;-56
2022/01/16 11:39:51;;;;;;;41.70;37.20;;;;;;;3.65;100.00;102644.84;5209063;28;20136;-55
2022/01/16 11:42:27;;;;;;;39.30;35.17;;;;;;;3.72;100.00;102654.72;5210038;28;20025;-60
2022/01/16 11:44:57;;;;;;;38.88;34.80;;;;;;;3.73;100.00;102644.88;5208852;28;20029;-61
2022/01/16 11:47:28;;;;;;;38.22;34.30;;;;;;;3.80;100.00;102635.16;5208662;28;20098;-57
2022/01/16 11:50:07;;;;;;;38.53;34.75;;;;;;;3.96;100.00;102659.22;5208083;28;20032;-57
2022/01/16 11:52:39;;;;;;;39.88;35.72;;;;;;;3.95;100.00;102681.59;5208254;28;20278;-55
2022/01/16 11:55:11;;;;;;;38.00;34.13;;;;;;;3.76;100.00;102686.41;5207608;28;20047;-55
2022/01/16 11:58:01;;;;;;;39.33;34.25;;;;;;;3.64;100.00;102694.78;5208144;28;20397;-56
2022/01/16 12:00:45;;;;;;;33.35;29.88;;;;;;;3.51;100.00;102683.72;5207529;28;20465;-55
2022/01/16 12:03:33;;;;;;;38.92;35.03;;;;;;;3.43;100.00;102670.38;5202229;28;20029;-55
2022/01/16 12:06:33;;;;;;;34.63;31.10;;;;;;;3.38;100.00;102641.50;5187133;28;20021;-57
2022/01/16 12:09:11;;;;;;;34.30;30.90;;;;;;;3.33;100.00;102641.16;5186944;28;20025;-55
2022/01/16 12:11:42;;;;;;;35.60;32.00;;;;;;;3.35;100.00;102647.16;5187786;28;20351;-55
2022/01/16 12:14:13;;;;;;;34.42;29.45;;;;;;;3.39;100.00;102653.03;5186475;28;20565;-58